createdAt,value
2023-05-10T00:05:01.027Z,36.5
2023-05-10T00:10:01.148Z,36.5
2023-05-10T00:15:01.645Z,36.6
2023-05-10T00:25:01.034Z,36.6
2023-05-10T00:30:02.415Z,36.6
2023-05-10T00:35:01.339Z,36.6
2023-05-10T00:45:01.339Z,36.6
2023-05-10T00:50:01.619Z,36.6
2023-05-10T00:55:01.304Z,36.6
2023-05-10T01:00:02.533Z,36.6
2023-05-10T01:05:01.144Z,36.5
2023-05-10T01:10:02.067Z,36.5
2023-05-10T01:15:02.158Z,36.6
2023-05-10T01:20:01.349Z,36.6
2023-05-10T01:25:01.075Z,36.6
2023-05-10T01:30:15.750Z,36.7
2023-05-10T01:35:01.651Z,36.7
2023-05-10T01:45:01.260Z,36.7
2023-05-10T01:50:01.073Z,36.7
2023-05-10T01:55:01.111Z,36.8
2023-05-10T02:00:01.319Z,36.8
2023-05-10T02:05:01.394Z,36.9
2023-05-10T02:10:01.304Z,36.9
2023-05-10T02:15:01.388Z,36.9
2023-05-10T02:20:01.149Z,36.9
2023-05-10T02:25:01.601Z,36.9
2023-05-10T02:30:01.596Z,36.9
2023-05-10T02:35:01.307Z,36.9
2023-05-10T02:45:02.556Z,37.1
2023-05-10T02:50:01.262Z,37.1
2023-05-10T02:55:01.348Z,37.2
2023-05-10T03:05:01.266Z,37.2
2023-05-10T03:10:01.118Z,37.2
2023-05-10T03:15:01.157Z,37.2
2023-05-10T03:25:01.874Z,37.3
2023-05-10T03:30:01.278Z,37.3
2023-05-10T03:35:01.177Z,37.3
2023-05-10T03:45:01.294Z,37.4
2023-05-10T03:50:01.115Z,37.3
2023-05-10T03:55:01.606Z,37.4
2023-05-10T04:00:02.165Z,37.4
2023-05-10T04:05:01.361Z,37.4
2023-05-10T04:10:02.368Z,37.4
2023-05-10T04:15:01.395Z,37.4
2023-05-10T04:20:01.136Z,37.4
2023-05-10T04:25:01.527Z,37.4
2023-05-10T04:30:01.327Z,37.4
2023-05-10T04:35:01.388Z,37.5
2023-05-10T04:45:01.502Z,37.6
2023-05-10T04:50:01.262Z,37.5
2023-05-10T04:55:01.268Z,37.6
2023-05-10T05:05:01.281Z,37.6
2023-05-10T05:10:01.080Z,37.6
2023-05-10T05:15:01.359Z,37.6
2023-05-10T05:25:01.374Z,37.6
2023-05-10T05:30:01.098Z,37.6
2023-05-10T05:35:01.600Z,37.6
2023-05-10T05:45:01.322Z,37.6
2023-05-10T05:50:01.525Z,37.6
2023-05-10T05:55:01.394Z,37.6
2023-05-10T06:05:01.319Z,37.6
2023-05-10T06:10:01.350Z,37.7
2023-05-10T06:15:03.285Z,37.7
2023-05-10T06:20:03.369Z,37.7
2023-05-10T06:25:01.148Z,37.8
2023-05-10T06:35:01.196Z,37.9
2023-05-10T06:45:01.497Z,38.0
2023-05-10T06:50:01.140Z,38.0
2023-05-10T06:55:01.129Z,38.0
2023-05-10T07:05:03.722Z,38.2
2023-05-10T07:10:00.577Z,38.1
2023-05-10T07:15:01.111Z,38.0
2023-05-10T07:25:01.106Z,37.9
2023-05-10T07:35:01.184Z,37.9
2023-05-10T07:45:01.065Z,38.4
2023-05-10T07:50:01.222Z,38.5
2023-05-10T07:55:01.356Z,38.6
2023-05-10T08:00:01.422Z,38.7
2023-05-10T08:05:01.063Z,38.8
2023-05-10T08:10:01.352Z,38.8
2023-05-10T08:15:01.842Z,38.8
2023-05-10T08:20:01.401Z,38.8
2023-05-10T08:25:01.086Z,38.8
2023-05-10T08:30:01.103Z,38.7
2023-05-10T08:35:02.229Z,38.7
2023-05-10T08:45:01.362Z,38.6
2023-05-10T08:55:01.060Z,38.7
2023-05-10T09:00:02.006Z,38.7
2023-05-10T09:05:01.621Z,38.7
2023-05-10T09:10:01.145Z,38.8
2023-05-10T09:15:01.260Z,38.8
2023-05-10T09:20:01.626Z,38.7
2023-05-10T09:25:01.497Z,38.8
2023-05-10T09:30:01.103Z,38.9
2023-05-10T09:35:01.174Z,38.9
2023-05-10T09:40:01.120Z,38.9
2023-05-10T09:45:01.248Z,38.9
2023-05-10T09:50:01.163Z,38.9
2023-05-10T09:55:01.073Z,39.0
2023-05-10T10:05:01.190Z,39.0
2023-05-10T10:10:01.174Z,39.1
2023-05-10T10:15:01.186Z,39.0
2023-05-10T10:25:01.100Z,39.0
2023-05-10T10:30:01.063Z,39.1
2023-05-10T10:35:01.362Z,39.1
2023-05-10T10:45:01.237Z,39.2
2023-05-10T10:50:01.496Z,39.2
2023-05-10T10:55:01.481Z,39.2
2023-05-10T11:00:01.002Z,39.2
2023-05-10T11:05:01.337Z,39.2
2023-05-10T11:15:01.312Z,39.3
2023-05-10T11:25:01.030Z,39.3
2023-05-10T11:30:03.805Z,39.3
2023-05-10T11:35:01.175Z,39.3
2023-05-10T11:45:01.410Z,39.3
2023-05-10T11:55:01.096Z,39.3
2023-05-10T12:00:01.294Z,39.4
2023-05-10T12:05:01.505Z,39.3
2023-05-10T12:10:01.049Z,39.3
2023-05-10T12:15:01.076Z,39.4
2023-05-10T12:20:02.984Z,39.3
2023-05-10T12:25:01.075Z,39.3
2023-05-10T12:30:01.190Z,39.3
2023-05-10T12:35:01.189Z,39.4
2023-05-10T12:45:01.484Z,39.4
2023-05-10T12:55:01.065Z,39.5
2023-05-10T13:00:01.067Z,39.5
2023-05-10T13:05:01.178Z,39.5
2023-05-10T13:10:01.284Z,39.5
2023-05-10T13:15:01.463Z,39.5
2023-05-10T13:25:01.186Z,39.5
2023-05-10T13:30:01.037Z,39.6
2023-05-10T13:35:01.110Z,39.6
2023-05-10T13:40:01.344Z,39.6
2023-05-10T13:45:01.582Z,39.5
2023-05-10T13:55:01.260Z,39.6
2023-05-10T14:05:01.591Z,39.6
2023-05-10T14:10:01.896Z,39.6
2023-05-10T14:15:01.107Z,39.6
2023-05-10T14:25:01.131Z,39.5
2023-05-10T14:35:01.660Z,39.4
2023-05-10T14:45:00.912Z,39.4
2023-05-10T14:50:00.997Z,39.3
2023-05-10T14:55:01.168Z,39.3
2023-05-10T15:05:02.304Z,39.2
2023-05-10T15:15:01.245Z,39.1
2023-05-10T15:20:01.111Z,39.0
2023-05-10T15:25:01.535Z,39.0
2023-05-10T15:35:00.839Z,38.9
2023-05-10T15:45:01.723Z,38.9
2023-05-10T15:50:01.171Z,38.9
2023-05-10T15:55:01.163Z,38.9
2023-05-10T16:00:01.107Z,38.8
2023-05-10T16:05:01.734Z,38.9
2023-05-10T16:10:00.583Z,38.9
2023-05-10T16:15:01.191Z,38.9
2023-05-10T16:25:01.069Z,39.0
2023-05-10T16:35:01.279Z,39.2
2023-05-10T16:40:01.755Z,39.3
2023-05-10T16:45:01.185Z,39.5
2023-05-10T16:50:01.278Z,39.7
2023-05-10T16:55:01.160Z,39.9
2023-05-10T17:00:01.446Z,40.3
2023-05-10T17:05:01.084Z,40.5
2023-05-10T17:15:01.087Z,40.8
2023-05-10T17:20:01.301Z,40.9
2023-05-10T17:25:01.649Z,41.2
2023-05-10T17:30:01.178Z,41.3
2023-05-10T17:35:01.831Z,41.3
2023-05-10T17:45:01.208Z,41.6
2023-05-10T17:50:00.560Z,41.6
2023-05-10T17:55:02.022Z,41.7
2023-05-10T18:05:01.580Z,41.8
2023-05-10T18:10:01.430Z,41.8
2023-05-10T18:15:01.765Z,42.1
2023-05-10T18:25:01.043Z,41.9
2023-05-10T18:30:01.179Z,42.0
2023-05-10T18:35:01.368Z,42.0
2023-05-10T18:40:01.421Z,42.1
2023-05-10T18:45:01.090Z,42.3
2023-05-10T18:50:01.402Z,42.3
2023-05-10T18:55:01.101Z,42.4
2023-05-10T19:05:02.839Z,42.3
2023-05-10T19:15:01.202Z,42.4
2023-05-10T19:20:03.666Z,42.5
2023-05-10T19:25:01.141Z,42.6
2023-05-10T19:35:01.300Z,42.9
2023-05-10T19:40:02.371Z,43.2
2023-05-10T19:45:01.320Z,43.1
2023-05-10T19:50:01.202Z,43.1
2023-05-10T19:55:01.095Z,43.0
2023-05-10T20:05:01.400Z,43.1
2023-05-10T20:15:01.130Z,43.1
2023-05-10T20:20:01.083Z,43.1
2023-05-10T20:25:01.066Z,43.2
2023-05-10T20:35:01.179Z,43.3
2023-05-10T20:40:01.164Z,43.4
2023-05-10T20:45:01.793Z,43.5
2023-05-10T20:55:01.057Z,43.4
2023-05-10T21:05:01.417Z,43.6
2023-05-10T21:15:01.441Z,43.7
2023-05-10T21:20:01.394Z,43.8
2023-05-10T21:25:01.140Z,43.8
2023-05-10T21:35:01.124Z,43.9
2023-05-10T21:40:01.087Z,44.0
2023-05-10T21:45:01.340Z,44.0
2023-05-10T21:55:01.135Z,44.1
2023-05-10T22:05:01.416Z,44.2
2023-05-10T22:15:11.069Z,44.3
2023-05-10T22:20:01.295Z,44.3
2023-05-10T22:25:01.147Z,44.3
2023-05-10T22:30:01.780Z,44.3
2023-05-10T22:35:01.098Z,44.3
2023-05-10T22:45:01.118Z,44.4
2023-05-10T22:55:01.425Z,44.4
2023-05-10T23:05:01.327Z,44.5
2023-05-10T23:15:03.175Z,44.7
2023-05-10T23:20:01.095Z,44.6
2023-05-10T23:25:01.086Z,44.7
2023-05-10T23:35:01.326Z,44.8
2023-05-10T23:40:01.451Z,44.9
2023-05-10T23:45:01.783Z,45.0
2023-05-10T23:55:01.170Z,45.3
